sensor_id;sensor_type;location;lat;lon;timestamp;temperature;humidity
23271;DHT22;11804;51.118;17.058;2022-08-25T00:02:01;20.50;99.90
23271;DHT22;11804;51.118;17.058;2022-08-25T00:04:20;20.50;99.90
23271;DHT22;11804;51.118;17.058;2022-08-25T00:06:48;20.40;99.90
23271;DHT22;11804;51.118;17.058;2022-08-25T00:09:19;20.50;99.90
23271;DHT22;11804;51.118;17.058;2022-08-25T00:11:48;20.40;99.90
23271;DHT22;11804;51.118;17.058;2022-08-25T00:14:18;20.40;99.90
23271;DHT22;11804;51.118;17.058;2022-08-25T00:16:46;20.50;99.90
23271;DHT22;11804;51.118;17.058;2022-08-25T00:19:17;20.40;99.90
23271;DHT22;11804;51.118;17.058;2022-08-25T00:21:45;20.40;99.90
23271;DHT22;11804;51.118;17.058;2022-08-25T00:24:15;20.40;99.90
23271;DHT22;11804;51.118;17.058;2022-08-25T00:26:45;20.40;99.90
23271;DHT22;11804;51.118;17.058;2022-08-25T00:29:13;20.40;99.90
23271;DHT22;11804;51.118;17.058;2022-08-25T00:31:41;20.40;99.90
23271;DHT22;11804;51.118;17.058;2022-08-25T00:34:13;20.30;99.90
23271;DHT22;11804;51.118;17.058;2022-08-25T00:36:41;20.30;99.90
23271;DHT22;11804;51.118;17.058;2022-08-25T00:39:09;20.30;99.90
23271;DHT22;11804;51.118;17.058;2022-08-25T00:41:40;20.30;99.90
23271;DHT22;11804;51.118;17.058;2022-08-25T00:44:09;20.30;99.90
23271;DHT22;11804;51.118;17.058;2022-08-25T00:46:40;20.20;99.90
23271;DHT22;11804;51.118;17.058;2022-08-25T00:49:14;20.20;99.90
23271;DHT22;11804;51.118;17.058;2022-08-25T00:51:51;20.20;99.90
23271;DHT22;11804;51.118;17.058;2022-08-25T00:54:21;20.20;99.90
23271;DHT22;11804;51.118;17.058;2022-08-25T00:56:49;20.20;99.90
23271;DHT22;11804;51.118;17.058;2022-08-25T00:59:21;20.10;99.90
23271;DHT22;11804;51.118;17.058;2022-08-25T01:01:50;20.10;99.90
23271;DHT22;11804;51.118;17.058;2022-08-25T01:04:18;20.20;99.90
23271;DHT22;11804;51.118;17.058;2022-08-25T01:06:47;20.20;99.90
23271;DHT22;11804;51.118;17.058;2022-08-25T01:09:16;20.20;99.90
23271;DHT22;11804;51.118;17.058;2022-08-25T01:11:45;20.30;99.90
23271;DHT22;11804;51.118;17.058;2022-08-25T01:14:15;20.30;99.90
23271;DHT22;11804;51.118;17.058;2022-08-25T01:16:44;20.30;99.90
23271;DHT22;11804;51.118;17.058;2022-08-25T01:19:13;20.30;99.90
23271;DHT22;11804;51.118;17.058;2022-08-25T01:21:44;20.30;99.90
23271;DHT22;11804;51.118;17.058;2022-08-25T01:24:22;20.30;99.90
23271;DHT22;11804;51.118;17.058;2022-08-25T01:26:49;20.20;99.90
23271;DHT22;11804;51.118;17.058;2022-08-25T01:29:17;20.20;99.90
23271;DHT22;11804;51.118;17.058;2022-08-25T01:31:53;20.20;99.90
23271;DHT22;11804;51.118;17.058;2022-08-25T01:34:25;20.20;99.90
23271;DHT22;11804;51.118;17.058;2022-08-25T01:36:53;20.10;99.90
23271;DHT22;11804;51.118;17.058;2022-08-25T01:39:21;20.10;99.90
23271;DHT22;11804;51.118;17.058;2022-08-25T01:42:07;20.00;99.90
23271;DHT22;11804;51.118;17.058;2022-08-25T01:44:33;20.00;99.90
23271;DHT22;11804;51.118;17.058;2022-08-25T01:47:02;20.00;99.90
23271;DHT22;11804;51.118;17.058;2022-08-25T01:49:29;20.00;99.90
23271;DHT22;11804;51.118;17.058;2022-08-25T01:52:06;19.90;99.90
23271;DHT22;11804;51.118;17.058;2022-08-25T01:54:34;20.00;99.90
23271;DHT22;11804;51.118;17.058;2022-08-25T01:57:01;20.00;99.90
23271;DHT22;11804;51.118;17.058;2022-08-25T01:59:29;19.90;99.90
23271;DHT22;11804;51.118;17.058;2022-08-25T02:01:57;20.00;99.90
23271;DHT22;11804;51.118;17.058;2022-08-25T02:04:24;19.90;99.90
23271;DHT22;11804;51.118;17.058;2022-08-25T02:06:52;19.90;99.90
23271;DHT22;11804;51.118;17.058;2022-08-25T02:09:19;19.90;99.90
23271;DHT22;11804;51.118;17.058;2022-08-25T02:11:47;19.90;99.90
23271;DHT22;11804;51.118;17.058;2022-08-25T02:14:15;19.80;99.90
23271;DHT22;11804;51.118;17.058;2022-08-25T02:16:46;19.90;99.90
23271;DHT22;11804;51.118;17.058;2022-08-25T02:19:14;19.80;99.90
23271;DHT22;11804;51.118;17.058;2022-08-25T02:21:42;19.80;99.90
23271;DHT22;11804;51.118;17.058;2022-08-25T02:24:14;19.80;99.90
23271;DHT22;11804;51.118;17.058;2022-08-25T02:36:00;19.80;99.90
23271;DHT22;11804;51.118;17.058;2022-08-25T02:42:09;19.70;99.90
23271;DHT22;11804;51.118;17.058;2022-08-25T02:47:15;19.70;99.90
23271;DHT22;11804;51.118;17.058;2022-08-25T02:49:57;19.70;99.90
23271;DHT22;11804;51.118;17.058;2022-08-25T02:52:25;19.70;99.90
23271;DHT22;11804;51.118;17.058;2022-08-25T02:55:13;19.60;99.90
23271;DHT22;11804;51.118;17.058;2022-08-25T03:00:45;19.60;99.90
23271;DHT22;11804;51.118;17.058;2022-08-25T03:03:13;19.60;99.90
23271;DHT22;11804;51.118;17.058;2022-08-25T03:05:42;19.50;99.90
23271;DHT22;11804;51.118;17.058;2022-08-25T03:08:21;19.50;99.90
23271;DHT22;11804;51.118;17.058;2022-08-25T03:10:53;19.50;99.90
23271;DHT22;11804;51.118;17.058;2022-08-25T03:13:34;19.50;99.90
23271;DHT22;11804;51.118;17.058;2022-08-25T03:16:12;19.50;99.90
23271;DHT22;11804;51.118;17.058;2022-08-25T03:18:41;19.50;99.90
23271;DHT22;11804;51.118;17.058;2022-08-25T03:21:14;19.40;99.90
23271;DHT22;11804;51.118;17.058;2022-08-25T03:24:05;19.50;99.90
23271;DHT22;11804;51.118;17.058;2022-08-25T03:26:33;19.50;99.90
23271;DHT22;11804;51.118;17.058;2022-08-25T03:29:27;19.40;99.90
23271;DHT22;11804;51.118;17.058;2022-08-25T03:31:57;19.40;99.90
23271;DHT22;11804;51.118;17.058;2022-08-25T03:34:28;19.40;99.90
23271;DHT22;11804;51.118;17.058;2022-08-25T03:37:00;19.30;99.90
23271;DHT22;11804;51.118;17.058;2022-08-25T03:39:28;19.20;99.90
23271;DHT22;11804;51.118;17.058;2022-08-25T03:44:55;19.20;99.90
23271;DHT22;11804;51.118;17.058;2022-08-25T03:47:23;19.30;99.90
23271;DHT22;11804;51.118;17.058;2022-08-25T03:50:01;19.30;99.90
23271;DHT22;11804;51.118;17.058;2022-08-25T03:52:50;19.30;99.90
23271;DHT22;11804;51.118;17.058;2022-08-25T03:55:28;19.30;99.90
23271;DHT22;11804;51.118;17.058;2022-08-25T03:58:12;19.30;99.90
23271;DHT22;11804;51.118;17.058;2022-08-25T04:00:40;19.30;99.90
23271;DHT22;11804;51.118;17.058;2022-08-25T04:03:08;19.30;99.90
23271;DHT22;11804;51.118;17.058;2022-08-25T04:05:50;19.30;99.90
23271;DHT22;11804;51.118;17.058;2022-08-25T04:08:25;19.30;99.90
23271;DHT22;11804;51.118;17.058;2022-08-25T04:11:16;19.40;99.90
23271;DHT22;11804;51.118;17.058;2022-08-25T04:13:48;19.30;99.90
23271;DHT22;11804;51.118;17.058;2022-08-25T04:16:21;19.40;99.90
23271;DHT22;11804;51.118;17.058;2022-08-25T04:18:51;19.30;99.90
23271;DHT22;11804;51.118;17.058;2022-08-25T04:24:09;19.40;99.90
23271;DHT22;11804;51.118;17.058;2022-08-25T04:26:40;19.30;99.90
23271;DHT22;11804;51.118;17.058;2022-08-25T04:32:40;19.30;99.90
23271;DHT22;11804;51.118;17.058;2022-08-25T04:37:42;19.50;99.90
23271;DHT22;11804;51.118;17.058;2022-08-25T04:40:26;19.40;99.90
23271;DHT22;11804;51.118;17.058;2022-08-25T04:42:55;19.40;99.90
23271;DHT22;11804;51.118;17.058;2022-08-25T04:45:24;19.30;99.90
23271;DHT22;11804;51.118;17.058;2022-08-25T04:48:01;19.30;99.90
23271;DHT22;11804;51.118;17.058;2022-08-25T04:50:29;19.40;99.90
23271;DHT22;11804;51.118;17.058;2022-08-25T04:52:56;19.40;99.90
23271;DHT22;11804;51.118;17.058;2022-08-25T04:55:24;19.50;99.90
23271;DHT22;11804;51.118;17.058;2022-08-25T04:57:54;19.50;99.90
23271;DHT22;11804;51.118;17.058;2022-08-25T05:00:24;19.30;99.90
23271;DHT22;11804;51.118;17.058;2022-08-25T05:03:08;19.30;99.90
23271;DHT22;11804;51.118;17.058;2022-08-25T05:05:36;19.50;99.90
23271;DHT22;11804;51.118;17.058;2022-08-25T05:08:14;19.50;99.90
23271;DHT22;11804;51.118;17.058;2022-08-25T05:11:05;19.50;99.90
23271;DHT22;11804;51.118;17.058;2022-08-25T05:13:40;19.60;99.90
23271;DHT22;11804;51.118;17.058;2022-08-25T05:16:09;19.70;99.90
23271;DHT22;11804;51.118;17.058;2022-08-25T05:18:42;19.80;99.90
23271;DHT22;11804;51.118;17.058;2022-08-25T05:21:17;19.90;99.90
23271;DHT22;11804;51.118;17.058;2022-08-25T05:23:46;20.00;99.90
23271;DHT22;11804;51.118;17.058;2022-08-25T05:26:16;20.20;99.90
23271;DHT22;11804;51.118;17.058;2022-08-25T05:28:47;20.20;99.90
23271;DHT22;11804;51.118;17.058;2022-08-25T05:31:23;20.20;99.90
23271;DHT22;11804;51.118;17.058;2022-08-25T05:33:51;20.10;99.90
23271;DHT22;11804;51.118;17.058;2022-08-25T05:36:19;20.20;99.90
23271;DHT22;11804;51.118;17.058;2022-08-25T05:38:55;20.30;99.90
23271;DHT22;11804;51.118;17.058;2022-08-25T05:41:36;20.20;99.90
23271;DHT22;11804;51.118;17.058;2022-08-25T05:44:06;20.30;99.90
23271;DHT22;11804;51.118;17.058;2022-08-25T05:46:40;20.40;99.90
23271;DHT22;11804;51.118;17.058;2022-08-25T05:49:10;20.40;99.90
23271;DHT22;11804;51.118;17.058;2022-08-25T05:51:48;20.50;99.90
23271;DHT22;11804;51.118;17.058;2022-08-25T05:54:16;20.60;99.90
23271;DHT22;11804;51.118;17.058;2022-08-25T05:56:45;20.70;99.90
23271;DHT22;11804;51.118;17.058;2022-08-25T05:59:13;20.60;99.90
23271;DHT22;11804;51.118;17.058;2022-08-25T06:01:41;20.60;99.90
23271;DHT22;11804;51.118;17.058;2022-08-25T06:04:27;20.60;99.90
23271;DHT22;11804;51.118;17.058;2022-08-25T06:06:54;20.60;99.90
23271;DHT22;11804;51.118;17.058;2022-08-25T06:09:22;20.70;99.90
23271;DHT22;11804;51.118;17.058;2022-08-25T06:11:50;20.70;99.90
23271;DHT22;11804;51.118;17.058;2022-08-25T06:14:21;20.70;99.90
23271;DHT22;11804;51.118;17.058;2022-08-25T06:16:48;20.70;99.90
23271;DHT22;11804;51.118;17.058;2022-08-25T06:19:18;20.80;99.90
23271;DHT22;11804;51.118;17.058;2022-08-25T06:22:00;21.00;99.90
23271;DHT22;11804;51.118;17.058;2022-08-25T06:27:50;21.50;99.90
23271;DHT22;11804;51.118;17.058;2022-08-25T06:33:38;21.10;99.90
23271;DHT22;11804;51.118;17.058;2022-08-25T06:36:08;21.20;99.90
23271;DHT22;11804;51.118;17.058;2022-08-25T06:41:34;21.00;99.90
23271;DHT22;11804;51.118;17.058;2022-08-25T06:44:23;21.10;99.90
23271;DHT22;11804;51.118;17.058;2022-08-25T06:46:52;21.30;99.90
23271;DHT22;11804;51.118;17.058;2022-08-25T06:49:26;21.40;99.90
23271;DHT22;11804;51.118;17.058;2022-08-25T06:51:57;21.50;99.90
23271;DHT22;11804;51.118;17.058;2022-08-25T06:57:18;22.20;99.90
23271;DHT22;11804;51.118;17.058;2022-08-25T06:59:42;22.80;99.90
23271;DHT22;11804;51.118;17.058;2022-08-25T07:02:11;23.30;99.90
23271;DHT22;11804;51.118;17.058;2022-08-25T07:04:54;23.70;99.90
23271;DHT22;11804;51.118;17.058;2022-08-25T07:07:19;23.80;99.90
23271;DHT22;11804;51.118;17.058;2022-08-25T07:09:57;23.60;99.90
23271;DHT22;11804;51.118;17.058;2022-08-25T07:12:23;24.90;99.90
23271;DHT22;11804;51.118;17.058;2022-08-25T07:15:03;25.90;99.90
23271;DHT22;11804;51.118;17.058;2022-08-25T07:18:06;26.60;99.90
23271;DHT22;11804;51.118;17.058;2022-08-25T07:23:20;26.80;99.90
23271;DHT22;11804;51.118;17.058;2022-08-25T07:25:48;26.20;99.90
23271;DHT22;11804;51.118;17.058;2022-08-25T07:28:17;25.90;99.90
23271;DHT22;11804;51.118;17.058;2022-08-25T07:30:46;25.20;99.90
23271;DHT22;11804;51.118;17.058;2022-08-25T07:33:14;24.60;99.90
23271;DHT22;11804;51.118;17.058;2022-08-25T07:35:49;24.60;99.90
23271;DHT22;11804;51.118;17.058;2022-08-25T07:38:33;25.00;99.90
23271;DHT22;11804;51.118;17.058;2022-08-25T07:41:03;25.40;99.90
23271;DHT22;11804;51.118;17.058;2022-08-25T07:43:40;25.20;99.90
23271;DHT22;11804;51.118;17.058;2022-08-25T07:46:07;24.90;99.90
23271;DHT22;11804;51.118;17.058;2022-08-25T07:48:35;24.30;99.90
23271;DHT22;11804;51.118;17.058;2022-08-25T07:51:10;23.80;99.90
23271;DHT22;11804;51.118;17.058;2022-08-25T07:53:47;24.70;99.90
23271;DHT22;11804;51.118;17.058;2022-08-25T07:59:07;25.70;99.90
23271;DHT22;11804;51.118;17.058;2022-08-25T08:01:33;25.60;99.90
23271;DHT22;11804;51.118;17.058;2022-08-25T08:04:01;26.00;99.90
23271;DHT22;11804;51.118;17.058;2022-08-25T08:06:31;26.40;99.90
23271;DHT22;11804;51.118;17.058;2022-08-25T08:08:59;27.10;99.90
23271;DHT22;11804;51.118;17.058;2022-08-25T08:11:34;27.80;99.90
23271;DHT22;11804;51.118;17.058;2022-08-25T08:16:45;28.80;99.90
23271;DHT22;11804;51.118;17.058;2022-08-25T08:19:12;29.20;99.90
23271;DHT22;11804;51.118;17.058;2022-08-25T08:21:41;28.80;99.90
23271;DHT22;11804;51.118;17.058;2022-08-25T08:27:01;28.50;99.90
23271;DHT22;11804;51.118;17.058;2022-08-25T08:29:29;28.30;99.90
23271;DHT22;11804;51.118;17.058;2022-08-25T08:31:56;27.00;99.90
23271;DHT22;11804;51.118;17.058;2022-08-25T08:37:08;27.90;99.90
23271;DHT22;11804;51.118;17.058;2022-08-25T08:39:39;28.30;99.70
23271;DHT22;11804;51.118;17.058;2022-08-25T08:45:32;28.50;98.70
23271;DHT22;11804;51.118;17.058;2022-08-25T08:50:55;29.10;97.00
23271;DHT22;11804;51.118;17.058;2022-08-25T08:56:29;29.90;94.70
23271;DHT22;11804;51.118;17.058;2022-08-25T08:59:02;29.80;94.60
23271;DHT22;11804;51.118;17.058;2022-08-25T09:02:05;29.90;93.00
23271;DHT22;11804;51.118;17.058;2022-08-25T09:06:48;27.50;99.90
23271;DHT22;11804;51.118;17.058;2022-08-25T09:09:35;27.70;99.90
23271;DHT22;11804;51.118;17.058;2022-08-25T09:31:22;27.00;99.90
23271;DHT22;11804;51.118;17.058;2022-08-25T09:33:54;27.40;99.90
23271;DHT22;11804;51.118;17.058;2022-08-25T09:36:23;27.70;99.90
23271;DHT22;11804;51.118;17.058;2022-08-25T09:38:52;27.80;98.40
23271;DHT22;11804;51.118;17.058;2022-08-25T09:47:14;27.90;98.00
23271;DHT22;11804;51.118;17.058;2022-08-25T09:49:45;28.10;96.30
23271;DHT22;11804;51.118;17.058;2022-08-25T09:52:38;28.10;94.40
23271;DHT22;11804;51.118;17.058;2022-08-25T09:57:49;29.30;89.80
23271;DHT22;11804;51.118;17.058;2022-08-25T10:00:20;30.30;86.00
23271;DHT22;11804;51.118;17.058;2022-08-25T10:03:10;30.70;82.50
23271;DHT22;11804;51.118;17.058;2022-08-25T10:05:56;32.20;74.60
23271;DHT22;11804;51.118;17.058;2022-08-25T10:08:29;32.60;68.70
23271;DHT22;11804;51.118;17.058;2022-08-25T10:10:45;30.90;73.30
23271;DHT22;11804;51.118;17.058;2022-08-25T10:13:18;30.60;75.50
23271;DHT22;11804;51.118;17.058;2022-08-25T10:15:46;30.30;75.70
23271;DHT22;11804;51.118;17.058;2022-08-25T10:18:25;29.80;79.80
23271;DHT22;11804;51.118;17.058;2022-08-25T10:21:13;30.60;76.10
23271;DHT22;11804;51.118;17.058;2022-08-25T10:23:49;30.80;76.90
23271;DHT22;11804;51.118;17.058;2022-08-25T10:34:57;29.60;85.40
23271;DHT22;11804;51.118;17.058;2022-08-25T10:37:31;29.20;88.60
23271;DHT22;11804;51.118;17.058;2022-08-25T10:43:16;29.50;90.10
23271;DHT22;11804;51.118;17.058;2022-08-25T10:45:38;29.60;89.50
23271;DHT22;11804;51.118;17.058;2022-08-25T10:51:11;29.00;91.70
23271;DHT22;11804;51.118;17.058;2022-08-25T10:56:39;29.20;92.20
23271;DHT22;11804;51.118;17.058;2022-08-25T10:59:22;28.40;94.30
23271;DHT22;11804;51.118;17.058;2022-08-25T11:07:19;29.10;95.20
23271;DHT22;11804;51.118;17.058;2022-08-25T11:09:46;29.30;94.40
23271;DHT22;11804;51.118;17.058;2022-08-25T11:12:31;29.50;93.50
23271;DHT22;11804;51.118;17.058;2022-08-25T11:15:08;29.40;93.00
23271;DHT22;11804;51.118;17.058;2022-08-25T11:17:54;29.10;93.90
23271;DHT22;11804;51.118;17.058;2022-08-25T11:20:30;28.40;97.50
23271;DHT22;11804;51.118;17.058;2022-08-25T11:25:43;28.70;98.30
23271;DHT22;11804;51.118;17.058;2022-08-25T11:30:49;28.60;98.50
23271;DHT22;11804;51.118;17.058;2022-08-25T11:33:18;28.80;99.00
23271;DHT22;11804;51.118;17.058;2022-08-25T11:36:36;28.50;98.80
23271;DHT22;11804;51.118;17.058;2022-08-25T11:41:30;28.70;98.90
23271;DHT22;11804;51.118;17.058;2022-08-25T11:46:59;28.70;98.40
23271;DHT22;11804;51.118;17.058;2022-08-25T11:51:57;28.70;99.90
23271;DHT22;11804;51.118;17.058;2022-08-25T11:54:27;28.90;98.90
23271;DHT22;11804;51.118;17.058;2022-08-25T11:57:01;29.00;97.90
23271;DHT22;11804;51.118;17.058;2022-08-25T12:10:57;28.20;99.80
23271;DHT22;11804;51.118;17.058;2022-08-25T12:13:47;28.20;99.60
23271;DHT22;11804;51.118;17.058;2022-08-25T12:24:49;27.90;99.90
23271;DHT22;11804;51.118;17.058;2022-08-25T12:29:49;27.90;99.90
23271;DHT22;11804;51.118;17.058;2022-08-25T12:32:32;28.20;99.90
23271;DHT22;11804;51.118;17.058;2022-08-25T12:35:16;28.50;99.70
23271;DHT22;11804;51.118;17.058;2022-08-25T12:45:53;29.00;97.80
23271;DHT22;11804;51.118;17.058;2022-08-25T12:51:08;29.10;97.70
23271;DHT22;11804;51.118;17.058;2022-08-25T12:53:41;28.90;94.20
23271;DHT22;11804;51.118;17.058;2022-08-25T12:56:21;28.80;93.60
23271;DHT22;11804;51.118;17.058;2022-08-25T13:07:06;28.00;97.10
23271;DHT22;11804;51.118;17.058;2022-08-25T13:12:33;28.10;98.40
23271;DHT22;11804;51.118;17.058;2022-08-25T13:14:57;28.10;96.90
23271;DHT22;11804;51.118;17.058;2022-08-25T13:17:31;28.20;97.10
23271;DHT22;11804;51.118;17.058;2022-08-25T13:20:14;28.20;95.60
23271;DHT22;11804;51.118;17.058;2022-08-25T13:22:46;28.30;96.30
23271;DHT22;11804;51.118;17.058;2022-08-25T13:25:23;28.50;95.40
23271;DHT22;11804;51.118;17.058;2022-08-25T13:27:56;28.70;95.30
23271;DHT22;11804;51.118;17.058;2022-08-25T13:30:26;28.90;95.80
23271;DHT22;11804;51.118;17.058;2022-08-25T13:32:54;29.20;94.30
23271;DHT22;11804;51.118;17.058;2022-08-25T13:35:27;29.20;94.50
23271;DHT22;11804;51.118;17.058;2022-08-25T13:38:15;29.10;95.10
23271;DHT22;11804;51.118;17.058;2022-08-25T13:40:41;29.00;96.60
23271;DHT22;11804;51.118;17.058;2022-08-25T13:43:11;28.80;96.90
23271;DHT22;11804;51.118;17.058;2022-08-25T13:45:44;28.60;95.10
23271;DHT22;11804;51.118;17.058;2022-08-25T13:48:19;28.50;96.80
23271;DHT22;11804;51.118;17.058;2022-08-25T13:50:42;28.30;96.10
23271;DHT22;11804;51.118;17.058;2022-08-25T13:53:24;28.20;96.60
23271;DHT22;11804;51.118;17.058;2022-08-25T13:55:58;28.30;95.70
23271;DHT22;11804;51.118;17.058;2022-08-25T13:58:29;28.60;96.00
23271;DHT22;11804;51.118;17.058;2022-08-25T14:01:05;28.50;95.60
23271;DHT22;11804;51.118;17.058;2022-08-25T14:03:38;28.50;95.90
23271;DHT22;11804;51.118;17.058;2022-08-25T14:06:17;28.40;95.90
23271;DHT22;11804;51.118;17.058;2022-08-25T14:13:46;29.20;94.90
23271;DHT22;11804;51.118;17.058;2022-08-25T14:16:20;29.20;93.50
23271;DHT22;11804;51.118;17.058;2022-08-25T14:18:50;29.20;93.70
23271;DHT22;11804;51.118;17.058;2022-08-25T14:21:21;29.00;94.10
23271;DHT22;11804;51.118;17.058;2022-08-25T14:23:48;28.90;95.70
23271;DHT22;11804;51.118;17.058;2022-08-25T14:26:16;28.60;98.10
23271;DHT22;11804;51.118;17.058;2022-08-25T14:28:44;28.30;99.90
23271;DHT22;11804;51.118;17.058;2022-08-25T14:31:19;28.10;99.90
23271;DHT22;11804;51.118;17.058;2022-08-25T14:34:11;28.00;99.90
23271;DHT22;11804;51.118;17.058;2022-08-25T14:36:34;28.20;99.90
23271;DHT22;11804;51.118;17.058;2022-08-25T14:39:03;28.10;99.90
23271;DHT22;11804;51.118;17.058;2022-08-25T14:41:34;28.10;99.90
23271;DHT22;11804;51.118;17.058;2022-08-25T14:44:02;28.10;99.90
23271;DHT22;11804;51.118;17.058;2022-08-25T14:46:33;28.20;99.90
23271;DHT22;11804;51.118;17.058;2022-08-25T14:49:05;28.40;99.90
23271;DHT22;11804;51.118;17.058;2022-08-25T14:51:33;28.40;99.20
23271;DHT22;11804;51.118;17.058;2022-08-25T14:54:04;28.50;99.90
23271;DHT22;11804;51.118;17.058;2022-08-25T14:56:33;28.60;99.40
23271;DHT22;11804;51.118;17.058;2022-08-25T14:59:00;28.60;99.00
23271;DHT22;11804;51.118;17.058;2022-08-25T15:01:28;28.70;99.10
23271;DHT22;11804;51.118;17.058;2022-08-25T15:04:04;28.80;97.70
23271;DHT22;11804;51.118;17.058;2022-08-25T15:06:34;29.00;98.10
23271;DHT22;11804;51.118;17.058;2022-08-25T15:09:04;29.10;97.90
23271;DHT22;11804;51.118;17.058;2022-08-25T15:11:47;28.90;97.50
23271;DHT22;11804;51.118;17.058;2022-08-25T15:14:16;28.60;98.40
23271;DHT22;11804;51.118;17.058;2022-08-25T15:16:49;28.40;99.90
23271;DHT22;11804;51.118;17.058;2022-08-25T15:19:19;28.10;99.90
23271;DHT22;11804;51.118;17.058;2022-08-25T15:21:49;28.00;99.90
23271;DHT22;11804;51.118;17.058;2022-08-25T15:24:17;28.10;99.90
23271;DHT22;11804;51.118;17.058;2022-08-25T15:26:50;28.10;99.90
23271;DHT22;11804;51.118;17.058;2022-08-25T15:29:18;28.20;99.90
23271;DHT22;11804;51.118;17.058;2022-08-25T15:31:48;28.20;99.90
23271;DHT22;11804;51.118;17.058;2022-08-25T15:34:15;28.10;99.90
23271;DHT22;11804;51.118;17.058;2022-08-25T15:36:43;28.10;99.90
23271;DHT22;11804;51.118;17.058;2022-08-25T15:39:10;28.10;99.90
23271;DHT22;11804;51.118;17.058;2022-08-25T15:41:38;28.00;99.90
23271;DHT22;11804;51.118;17.058;2022-08-25T15:44:07;28.00;99.90
23271;DHT22;11804;51.118;17.058;2022-08-25T15:46:37;28.10;99.90
23271;DHT22;11804;51.118;17.058;2022-08-25T15:49:05;28.20;99.90
23271;DHT22;11804;51.118;17.058;2022-08-25T15:51:32;28.10;99.90
23271;DHT22;11804;51.118;17.058;2022-08-25T15:54:00;28.20;99.90
23271;DHT22;11804;51.118;17.058;2022-08-25T15:56:27;28.20;99.90
23271;DHT22;11804;51.118;17.058;2022-08-25T15:58:56;27.90;99.90
23271;DHT22;11804;51.118;17.058;2022-08-25T16:01:26;27.90;99.90
23271;DHT22;11804;51.118;17.058;2022-08-25T16:03:55;27.80;99.90
23271;DHT22;11804;51.118;17.058;2022-08-25T16:06:25;27.80;99.90
23271;DHT22;11804;51.118;17.058;2022-08-25T16:08:52;27.90;99.90
23271;DHT22;11804;51.118;17.058;2022-08-25T16:11:23;27.90;99.90
23271;DHT22;11804;51.118;17.058;2022-08-25T16:13:52;27.90;99.90
23271;DHT22;11804;51.118;17.058;2022-08-25T16:16:22;27.90;99.90
23271;DHT22;11804;51.118;17.058;2022-08-25T16:18:50;27.80;99.90
23271;DHT22;11804;51.118;17.058;2022-08-25T16:21:21;27.70;99.90
23271;DHT22;11804;51.118;17.058;2022-08-25T16:23:52;27.60;99.90
23271;DHT22;11804;51.118;17.058;2022-08-25T16:26:20;27.60;99.90
23271;DHT22;11804;51.118;17.058;2022-08-25T16:28:48;27.60;99.90
23271;DHT22;11804;51.118;17.058;2022-08-25T16:31:16;27.50;99.90
23271;DHT22;11804;51.118;17.058;2022-08-25T16:33:44;27.50;99.90
23271;DHT22;11804;51.118;17.058;2022-08-25T16:36:14;27.60;99.90
23271;DHT22;11804;51.118;17.058;2022-08-25T16:38:43;27.60;99.90
23271;DHT22;11804;51.118;17.058;2022-08-25T16:41:13;27.50;99.90
23271;DHT22;11804;51.118;17.058;2022-08-25T16:43:42;27.50;99.90
23271;DHT22;11804;51.118;17.058;2022-08-25T16:46:11;27.40;99.90
23271;DHT22;11804;51.118;17.058;2022-08-25T16:48:39;27.40;99.90
23271;DHT22;11804;51.118;17.058;2022-08-25T16:51:10;27.30;99.90
23271;DHT22;11804;51.118;17.058;2022-08-25T16:53:38;27.30;99.90
23271;DHT22;11804;51.118;17.058;2022-08-25T16:56:24;27.30;99.90
23271;DHT22;11804;51.118;17.058;2022-08-25T16:58:57;27.30;99.90
23271;DHT22;11804;51.118;17.058;2022-08-25T17:01:26;27.20;99.90
23271;DHT22;11804;51.118;17.058;2022-08-25T17:03:56;27.20;99.90
23271;DHT22;11804;51.118;17.058;2022-08-25T17:06:26;27.10;99.90
23271;DHT22;11804;51.118;17.058;2022-08-25T17:08:55;27.00;99.90
23271;DHT22;11804;51.118;17.058;2022-08-25T17:11:28;26.90;99.90
23271;DHT22;11804;51.118;17.058;2022-08-25T17:13:55;26.80;99.90
23271;DHT22;11804;51.118;17.058;2022-08-25T17:16:26;26.80;99.90
23271;DHT22;11804;51.118;17.058;2022-08-25T17:18:56;26.70;99.90
23271;DHT22;11804;51.118;17.058;2022-08-25T17:21:25;26.70;99.90
23271;DHT22;11804;51.118;17.058;2022-08-25T17:23:55;26.60;99.90
23271;DHT22;11804;51.118;17.058;2022-08-25T17:26:24;26.50;99.90
23271;DHT22;11804;51.118;17.058;2022-08-25T17:28:52;26.50;99.90
23271;DHT22;11804;51.118;17.058;2022-08-25T17:31:21;26.40;99.90
23271;DHT22;11804;51.118;17.058;2022-08-25T17:33:49;26.40;99.90
23271;DHT22;11804;51.118;17.058;2022-08-25T17:36:18;26.40;99.90
23271;DHT22;11804;51.118;17.058;2022-08-25T17:38:45;26.40;99.90
23271;DHT22;11804;51.118;17.058;2022-08-25T17:41:13;26.30;99.90
23271;DHT22;11804;51.118;17.058;2022-08-25T17:43:42;26.20;99.90
23271;DHT22;11804;51.118;17.058;2022-08-25T17:46:11;26.20;99.90
23271;DHT22;11804;51.118;17.058;2022-08-25T17:48:39;26.10;99.90
23271;DHT22;11804;51.118;17.058;2022-08-25T17:51:07;26.10;99.90
23271;DHT22;11804;51.118;17.058;2022-08-25T17:53:35;26.00;99.90
23271;DHT22;11804;51.118;17.058;2022-08-25T17:56:07;26.00;99.90
23271;DHT22;11804;51.118;17.058;2022-08-25T17:58:35;26.00;99.90
23271;DHT22;11804;51.118;17.058;2022-08-25T18:01:24;26.00;99.90
23271;DHT22;11804;51.118;17.058;2022-08-25T18:03:52;25.90;99.90
23271;DHT22;11804;51.118;17.058;2022-08-25T18:06:20;25.90;99.90
23271;DHT22;11804;51.118;17.058;2022-08-25T18:08:48;25.80;99.90
23271;DHT22;11804;51.118;17.058;2022-08-25T18:11:16;25.70;99.90
23271;DHT22;11804;51.118;17.058;2022-08-25T18:13:46;25.70;99.90
23271;DHT22;11804;51.118;17.058;2022-08-25T18:16:13;25.60;99.90
23271;DHT22;11804;51.118;17.058;2022-08-25T18:18:41;25.60;99.90
23271;DHT22;11804;51.118;17.058;2022-08-25T18:21:12;25.50;99.90
23271;DHT22;11804;51.118;17.058;2022-08-25T18:23:40;25.60;99.90
23271;DHT22;11804;51.118;17.058;2022-08-25T18:26:09;25.60;99.90
23271;DHT22;11804;51.118;17.058;2022-08-25T18:28:38;25.60;99.90
23271;DHT22;11804;51.118;17.058;2022-08-25T18:31:06;25.60;99.90
23271;DHT22;11804;51.118;17.058;2022-08-25T18:33:34;25.60;99.90
23271;DHT22;11804;51.118;17.058;2022-08-25T18:36:02;25.50;99.90
23271;DHT22;11804;51.118;17.058;2022-08-25T18:38:29;25.50;99.90
23271;DHT22;11804;51.118;17.058;2022-08-25T18:41:15;25.50;99.90
23271;DHT22;11804;51.118;17.058;2022-08-25T18:43:43;25.50;99.90
23271;DHT22;11804;51.118;17.058;2022-08-25T18:46:10;25.50;99.90